createdAt,value
2023-01-13T00:00:01.363Z,73.85
2023-01-13T00:01:10.604Z,73.85
2023-01-13T00:02:00.814Z,73.85
2023-01-13T00:03:00.704Z,73.85
2023-01-13T00:04:00.691Z,73.90
2023-01-13T00:05:00.764Z,73.90
2023-01-13T00:06:01.267Z,73.90
2023-01-13T00:07:00.714Z,73.90
2023-01-13T00:08:00.702Z,73.90
2023-01-13T00:09:00.741Z,74.46
2023-01-13T00:10:00.814Z,74.46
2023-01-13T00:11:00.942Z,74.46
2023-01-13T00:12:00.686Z,74.46
2023-01-13T00:13:02.068Z,74.46
2023-01-13T00:14:00.735Z,74.97
2023-01-13T00:15:00.721Z,74.97
2023-01-13T00:16:03.547Z,74.97
2023-01-13T00:17:01.058Z,74.97
2023-01-13T00:18:00.685Z,74.97
2023-01-13T00:19:00.697Z,74.79
2023-01-13T00:20:00.781Z,74.79
2023-01-13T00:21:01.733Z,74.79
2023-01-13T00:22:00.694Z,74.79
2023-01-13T00:23:00.688Z,74.79
2023-01-13T00:24:01.092Z,74.34
2023-01-13T00:25:01.136Z,74.34
2023-01-13T00:26:02.583Z,74.34
2023-01-13T00:27:00.717Z,74.34
2023-01-13T00:28:00.689Z,74.34
2023-01-13T00:29:00.762Z,74.53
2023-01-13T00:30:01.014Z,74.53
2023-01-13T00:31:05.243Z,74.53
2023-01-13T00:32:00.712Z,74.53
2023-01-13T00:33:00.712Z,74.53
2023-01-13T00:34:01.158Z,74.58
2023-01-13T00:35:00.740Z,74.58
2023-01-13T00:36:01.799Z,74.58
2023-01-13T00:37:00.741Z,74.58
2023-01-13T00:38:00.717Z,74.58
2023-01-13T00:39:00.701Z,74.70
2023-01-13T00:40:00.695Z,74.70
2023-01-13T00:41:02.192Z,74.70
2023-01-13T00:42:00.691Z,74.70
2023-01-13T00:43:00.697Z,74.70
2023-01-13T00:44:00.702Z,74.48
2023-01-13T00:45:00.728Z,74.48
2023-01-13T00:46:01.183Z,74.48
2023-01-13T00:47:00.686Z,74.48
2023-01-13T00:48:00.696Z,74.48
2023-01-13T00:49:00.694Z,74.65
2023-01-13T00:50:00.724Z,74.65
2023-01-13T00:51:03.490Z,74.65
2023-01-13T00:52:00.696Z,74.65
2023-01-13T00:53:01.046Z,74.65
2023-01-13T00:54:00.688Z,74.89
2023-01-13T00:55:00.696Z,74.89
2023-01-13T00:56:01.760Z,74.89
2023-01-13T00:57:00.725Z,74.89
2023-01-13T00:58:00.710Z,74.89
2023-01-13T00:59:00.706Z,75.33
2023-01-13T01:00:00.694Z,75.33
2023-01-13T01:01:01.919Z,75.33
2023-01-13T01:02:00.926Z,75.33
2023-01-13T01:03:00.698Z,75.33
2023-01-13T01:04:00.718Z,75.06
2023-01-13T01:05:00.717Z,75.06
2023-01-13T01:06:05.634Z,75.06
2023-01-13T01:07:00.700Z,75.06
2023-01-13T01:08:00.923Z,75.06
2023-01-13T01:09:00.780Z,74.98
2023-01-13T01:10:01.144Z,74.98
2023-01-13T01:11:02.449Z,74.98
2023-01-13T01:12:00.725Z,74.98
2023-01-13T01:13:00.695Z,74.98
2023-01-13T01:14:02.248Z,74.87
2023-01-13T01:15:00.713Z,74.87
2023-01-13T01:16:06.037Z,74.87
2023-01-13T01:17:00.714Z,74.87
2023-01-13T01:18:00.706Z,74.87
2023-01-13T01:19:00.972Z,74.18
2023-01-13T01:20:00.900Z,74.18
2023-01-13T01:21:00.804Z,74.18
2023-01-13T01:22:00.701Z,74.18
2023-01-13T01:23:00.723Z,74.18
2023-01-13T01:24:02.091Z,74.01
2023-01-13T01:25:00.751Z,74.01
2023-01-13T01:26:05.406Z,74.01
2023-01-13T01:27:00.707Z,74.01
2023-01-13T01:28:00.690Z,74.01
2023-01-13T01:29:00.740Z,74.03
2023-01-13T01:30:00.704Z,74.03
2023-01-13T01:31:05.086Z,74.03
2023-01-13T01:32:00.719Z,74.03
2023-01-13T01:33:00.696Z,74.03
2023-01-13T01:34:01.093Z,74.46
2023-01-13T01:35:00.704Z,74.46
2023-01-13T01:36:01.243Z,74.46
2023-01-13T01:37:00.694Z,74.46
2023-01-13T01:38:00.700Z,74.46
2023-01-13T01:39:01.301Z,74.81
2023-01-13T01:41:00.692Z,74.81
2023-01-13T01:42:00.777Z,74.81
2023-01-13T01:43:00.728Z,74.81
2023-01-13T01:44:10.616Z,74.55
2023-01-13T01:45:09.801Z,74.55
2023-01-13T01:46:00.998Z,74.55
2023-01-13T01:47:00.813Z,74.55
2023-01-13T01:48:03.224Z,74.55
2023-01-13T01:49:01.718Z,74.21
2023-01-13T01:50:02.317Z,74.21
2023-01-13T01:51:01.133Z,74.21
2023-01-13T01:52:03.182Z,74.21
2023-01-13T01:53:10.615Z,74.21
2023-01-13T01:54:02.013Z,74.22
2023-01-13T01:55:04.987Z,74.22
2023-01-13T01:56:00.911Z,74.22
2023-01-13T01:57:00.759Z,74.22
2023-01-13T01:58:04.705Z,74.22
2023-01-13T01:59:00.876Z,73.88
2023-01-13T02:00:01.044Z,73.88
2023-01-13T02:01:00.785Z,73.88
2023-01-13T02:02:01.043Z,73.88
2023-01-13T02:03:02.204Z,73.88
2023-01-13T02:04:04.312Z,73.73
2023-01-13T02:05:00.978Z,73.73
2023-01-13T02:06:00.769Z,73.73
2023-01-13T02:07:02.239Z,73.73
2023-01-13T02:08:00.720Z,73.73
2023-01-13T02:09:00.745Z,73.27
2023-01-13T02:10:02.894Z,73.27
2023-01-13T02:11:00.692Z,73.27
2023-01-13T02:12:00.728Z,73.27
2023-01-13T02:13:03.012Z,73.27
2023-01-13T02:14:00.813Z,73.60
2023-01-13T02:15:00.706Z,73.60
2023-01-13T02:16:10.626Z,73.60
2023-01-13T02:17:05.908Z,73.60
2023-01-13T02:18:10.610Z,73.60
2023-01-13T02:19:10.606Z,73.24
2023-01-13T02:20:10.595Z,73.24
2023-01-13T02:21:08.128Z,73.24
2023-01-13T02:22:10.642Z,73.24
2023-01-13T02:23:01.682Z,73.24
2023-01-13T02:24:10.622Z,72.92
2023-01-13T02:25:10.596Z,72.92
2023-01-13T02:26:10.609Z,72.92
2023-01-13T02:27:10.601Z,72.92
2023-01-13T02:28:10.629Z,72.92
2023-01-13T02:29:08.051Z,72.91
2023-01-13T02:30:07.035Z,72.91
2023-01-13T02:31:10.609Z,72.91
2023-01-13T02:32:07.110Z,72.91
2023-01-13T02:33:03.939Z,72.91
2023-01-13T02:34:06.410Z,72.68
2023-01-13T02:35:01.725Z,72.68
2023-01-13T02:36:09.388Z,72.68
2023-01-13T02:37:06.436Z,72.68
2023-01-13T02:38:01.756Z,72.68
2023-01-13T02:39:10.605Z,72.47
2023-01-13T02:40:02.177Z,72.47
2023-01-13T02:41:04.333Z,72.47
2023-01-13T02:42:09.289Z,72.47
2023-01-13T02:43:03.304Z,72.47
2023-01-13T02:44:02.137Z,72.31
2023-01-13T02:45:03.906Z,72.31
2023-01-13T02:46:06.820Z,72.31
2023-01-13T02:47:07.415Z,72.31
2023-01-13T02:48:03.695Z,72.31
2023-01-13T02:49:03.707Z,71.98
2023-01-13T02:50:03.275Z,71.98
2023-01-13T02:51:04.107Z,71.98
2023-01-13T02:52:07.515Z,71.98
2023-01-13T02:53:04.834Z,71.98
2023-01-13T02:54:03.961Z,72.27
2023-01-13T02:55:04.468Z,72.27
2023-01-13T02:56:02.269Z,72.27
2023-01-13T02:57:01.882Z,72.27
2023-01-13T02:58:03.711Z,72.27
2023-01-13T02:59:00.907Z,72.38
2023-01-13T03:00:01.895Z,72.38
2023-01-13T03:01:01.022Z,72.38
2023-01-13T03:02:01.177Z,72.38
2023-01-13T03:03:00.793Z,72.38
2023-01-13T03:04:10.621Z,72.55
2023-01-13T03:05:00.800Z,72.55
2023-01-13T03:06:07.664Z,72.55
2023-01-13T03:07:04.287Z,72.55
2023-01-13T03:08:10.627Z,72.55
2023-01-13T03:09:00.688Z,72.70
2023-01-13T03:10:09.582Z,72.70
2023-01-13T03:11:04.706Z,72.70
2023-01-13T03:12:00.683Z,72.70
2023-01-13T03:13:10.620Z,72.70
2023-01-13T03:14:10.629Z,72.86
2023-01-13T03:15:10.620Z,72.86
2023-01-13T03:16:10.644Z,72.86
2023-01-13T03:17:08.067Z,72.86
2023-01-13T03:18:10.620Z,72.86
2023-01-13T03:19:01.700Z,73.12
2023-01-13T03:20:00.696Z,73.12
2023-01-13T03:21:06.192Z,73.12
2023-01-13T03:22:01.714Z,73.12
2023-01-13T03:23:01.686Z,73.12
2023-01-13T03:24:05.339Z,73.24
2023-01-13T03:25:08.362Z,73.24
2023-01-13T03:26:06.300Z,73.24
2023-01-13T03:27:05.303Z,73.24
2023-01-13T03:28:03.704Z,73.24
2023-01-13T03:29:05.748Z,72.88
2023-01-13T03:30:06.105Z,72.88
2023-01-13T03:31:04.060Z,72.88
2023-01-13T03:32:04.962Z,72.88
2023-01-13T03:33:03.905Z,72.88
2023-01-13T03:34:06.521Z,72.50
2023-01-13T03:35:08.458Z,72.50
2023-01-13T03:36:04.900Z,72.50
2023-01-13T03:37:02.671Z,72.50
2023-01-13T03:38:04.545Z,72.50
2023-01-13T03:39:06.807Z,72.16
2023-01-13T03:40:07.967Z,72.16
2023-01-13T03:41:04.671Z,72.16
2023-01-13T03:42:04.503Z,72.16
2023-01-13T03:43:07.343Z,72.16
2023-01-13T03:44:06.010Z,72.09
2023-01-13T03:45:08.946Z,72.09
2023-01-13T03:46:03.866Z,72.09
2023-01-13T03:47:10.668Z,72.09
2023-01-13T03:48:04.920Z,72.09
2023-01-13T03:49:02.064Z,72.04
2023-01-13T03:50:05.720Z,72.04
2023-01-13T03:51:05.132Z,72.04
2023-01-13T03:52:03.402Z,72.04
2023-01-13T03:53:04.770Z,72.04
2023-01-13T03:54:04.710Z,70.87
2023-01-13T03:55:03.941Z,70.87
2023-01-13T03:56:04.440Z,70.87
2023-01-13T03:57:03.686Z,70.87
2023-01-13T03:58:00.769Z,70.87
2023-01-13T03:59:02.553Z,70.83
2023-01-13T04:00:01.822Z,70.83
2023-01-13T04:01:00.833Z,70.83
2023-01-13T04:02:04.555Z,70.83
2023-01-13T04:03:06.666Z,70.83
2023-01-13T04:04:05.870Z,70.68
2023-01-13T04:05:02.342Z,70.68
2023-01-13T04:06:09.022Z,70.68
2023-01-13T04:07:10.650Z,70.68
2023-01-13T04:08:08.913Z,70.68
2023-01-13T04:09:05.404Z,70.88
2023-01-13T04:10:02.533Z,70.88
2023-01-13T04:11:04.418Z,70.88
2023-01-13T04:12:10.690Z,70.88
2023-01-13T04:13:03.515Z,70.88
2023-01-13T04:14:02.183Z,70.89
2023-01-13T04:15:00.929Z,70.89
2023-01-13T04:16:04.697Z,70.89
2023-01-13T04:17:00.716Z,70.89
2023-01-13T04:18:10.621Z,70.89
2023-01-13T04:19:00.699Z,71.37
2023-01-13T04:20:00.709Z,71.37
2023-01-13T04:21:00.847Z,71.37
2023-01-13T04:22:00.744Z,71.37
2023-01-13T04:23:00.910Z,71.37
2023-01-13T04:24:00.742Z,72.14
2023-01-13T04:25:00.725Z,72.14
2023-01-13T04:26:00.705Z,72.14
2023-01-13T04:27:00.701Z,72.14
2023-01-13T04:28:00.964Z,72.14
2023-01-13T04:29:00.699Z,72.37
2023-01-13T04:30:00.808Z,72.37
2023-01-13T04:31:00.839Z,72.37
2023-01-13T04:32:00.707Z,72.37
2023-01-13T04:33:00.786Z,72.37
2023-01-13T04:34:00.806Z,72.50
2023-01-13T04:35:00.697Z,72.50
2023-01-13T04:36:00.722Z,72.50
2023-01-13T04:37:00.703Z,72.50
2023-01-13T04:38:01.710Z,72.50
2023-01-13T04:39:01.133Z,72.85
2023-01-13T04:40:00.695Z,72.85
2023-01-13T04:41:00.707Z,72.85
2023-01-13T04:42:00.723Z,72.85
2023-01-13T04:43:00.904Z,72.85
2023-01-13T04:44:00.725Z,72.33
2023-01-13T04:45:00.767Z,72.33
2023-01-13T04:46:00.769Z,72.33
2023-01-13T04:47:01.472Z,72.33
2023-01-13T04:48:00.844Z,72.33
2023-01-13T04:49:00.769Z,72.46
2023-01-13T04:50:00.707Z,72.46
2023-01-13T04:51:00.733Z,72.46
2023-01-13T04:52:00.711Z,72.46
2023-01-13T04:53:00.711Z,72.46
2023-01-13T04:54:00.701Z,72.69
2023-01-13T04:55:00.784Z,72.69
2023-01-13T04:56:00.690Z,72.69
2023-01-13T04:57:00.727Z,72.69
2023-01-13T04:58:01.659Z,72.69
2023-01-13T04:59:00.718Z,72.84
2023-01-13T05:00:00.726Z,72.84
2023-01-13T05:01:00.731Z,72.84
2023-01-13T05:02:00.969Z,72.84
2023-01-13T05:03:01.110Z,72.84
2023-01-13T05:04:00.749Z,72.58
2023-01-13T05:05:00.762Z,72.58
2023-01-13T05:06:00.710Z,72.58
2023-01-13T05:07:00.759Z,72.58
2023-01-13T05:08:00.755Z,72.58
2023-01-13T05:09:00.709Z,72.28
2023-01-13T05:10:00.839Z,72.28
2023-01-13T05:11:00.758Z,72.28
2023-01-13T05:12:00.697Z,72.28
2023-01-13T05:13:00.720Z,72.28
2023-01-13T05:14:00.713Z,71.82
2023-01-13T05:15:00.709Z,71.82
2023-01-13T05:16:01.009Z,71.82
2023-01-13T05:17:00.892Z,71.82
2023-01-13T05:18:00.813Z,71.82
2023-01-13T05:19:00.775Z,72.07
2023-01-13T05:20:00.828Z,72.07
2023-01-13T05:21:00.700Z,72.07
2023-01-13T05:22:01.474Z,72.07
2023-01-13T05:23:00.698Z,72.07
2023-01-13T05:24:00.694Z,72.45
2023-01-13T05:25:00.741Z,72.45
2023-01-13T05:26:01.022Z,72.45
2023-01-13T05:27:00.702Z,72.45
2023-01-13T05:28:00.716Z,72.45
2023-01-13T05:29:00.706Z,72.49
2023-01-13T05:30:01.133Z,72.49
2023-01-13T05:31:00.803Z,72.49
2023-01-13T05:32:00.701Z,72.49
2023-01-13T05:33:00.776Z,72.49
2023-01-13T05:34:00.709Z,73.30
2023-01-13T05:35:00.718Z,73.30
2023-01-13T05:36:01.113Z,73.30
2023-01-13T05:37:00.695Z,73.30
2023-01-13T05:38:00.697Z,73.30
2023-01-13T05:39:00.761Z,73.71
2023-01-13T05:40:00.801Z,73.71
2023-01-13T05:41:00.705Z,73.71
2023-01-13T05:42:00.708Z,73.71
2023-01-13T05:43:01.813Z,73.71
2023-01-13T05:44:00.728Z,74.07
2023-01-13T05:45:00.720Z,74.07
2023-01-13T05:46:03.126Z,74.07
2023-01-13T05:47:00.747Z,74.07
2023-01-13T05:48:00.702Z,74.07
2023-01-13T05:49:00.692Z,74.14
2023-01-13T05:50:00.806Z,74.14
2023-01-13T05:51:02.011Z,74.14
2023-01-13T05:52:00.693Z,74.14
2023-01-13T05:53:00.695Z,74.14
2023-01-13T05:54:00.727Z,74.03
2023-01-13T05:55:00.719Z,74.03
2023-01-13T05:56:04.556Z,74.03
2023-01-13T05:57:00.725Z,74.03
2023-01-13T05:58:00.725Z,74.03
2023-01-13T05:59:00.735Z,73.91
2023-01-13T06:00:00.870Z,73.91
2023-01-13T06:01:03.914Z,73.91
2023-01-13T06:02:00.684Z,73.91
2023-01-13T06:03:01.022Z,73.91
2023-01-13T06:04:00.720Z,73.51
2023-01-13T06:05:00.735Z,73.51
2023-01-13T06:06:00.910Z,73.51
2023-01-13T06:07:00.742Z,73.51
2023-01-13T06:08:01.859Z,73.51
2023-01-13T06:09:00.729Z,73.55
2023-01-13T06:10:00.787Z,73.55
2023-01-13T06:11:00.717Z,73.55
2023-01-13T06:12:00.704Z,73.55
2023-01-13T06:13:01.096Z,73.55
2023-01-13T06:14:00.715Z,73.03
2023-01-13T06:15:00.732Z,73.03
2023-01-13T06:16:00.774Z,73.03
2023-01-13T06:17:00.706Z,73.03
2023-01-13T06:18:01.355Z,73.03
2023-01-13T06:19:00.727Z,72.56
2023-01-13T06:20:00.695Z,72.56
2023-01-13T06:21:00.872Z,72.56
2023-01-13T06:22:10.628Z,72.56
2023-01-13T06:23:00.840Z,72.56
2023-01-13T06:24:00.733Z,72.78
2023-01-13T06:25:00.746Z,72.78
2023-01-13T06:26:04.306Z,72.78
2023-01-13T06:27:00.743Z,72.78
2023-01-13T06:28:00.876Z,72.78
2023-01-13T06:29:00.793Z,72.78
2023-01-13T06:30:00.716Z,72.78
2023-01-13T06:31:02.766Z,72.78
2023-01-13T06:32:02.722Z,72.78
2023-01-13T06:33:02.421Z,72.78
2023-01-13T06:34:05.330Z,72.86
2023-01-13T06:35:05.579Z,72.86
2023-01-13T06:36:03.382Z,72.86
2023-01-13T06:37:01.830Z,72.86
2023-01-13T06:38:02.572Z,72.86
2023-01-13T06:39:01.909Z,73.31
2023-01-13T06:40:02.004Z,73.31
2023-01-13T06:41:00.869Z,73.31
2023-01-13T06:42:01.905Z,73.31
2023-01-13T06:43:01.800Z,73.31
2023-01-13T06:44:00.717Z,73.19
2023-01-13T06:45:00.818Z,73.19
2023-01-13T06:46:00.767Z,73.19
2023-01-13T06:47:00.773Z,73.19
2023-01-13T06:48:00.886Z,73.19
2023-01-13T06:49:00.694Z,73.00
2023-01-13T06:50:00.724Z,73.00
2023-01-13T06:51:01.551Z,73.00
2023-01-13T06:52:00.736Z,73.00
2023-01-13T06:53:01.158Z,73.00
2023-01-13T06:54:00.738Z,73.22
2023-01-13T06:55:00.778Z,73.22
2023-01-13T06:56:00.754Z,73.22
2023-01-13T06:57:00.937Z,73.22
2023-01-13T06:58:00.709Z,73.22
2023-01-13T06:59:00.766Z,72.44
2023-01-13T07:00:00.873Z,72.44
2023-01-13T07:01:00.856Z,72.44
2023-01-13T07:02:01.591Z,72.44
2023-01-13T07:03:08.145Z,72.44
2023-01-13T07:04:00.718Z,72.41
2023-01-13T07:05:00.690Z,72.41
2023-01-13T07:06:00.768Z,72.41
2023-01-13T07:07:00.743Z,72.41
2023-01-13T07:08:00.711Z,72.41
2023-01-13T07:09:00.832Z,72.28
2023-01-13T07:10:00.763Z,72.28
2023-01-13T07:11:01.082Z,72.28
2023-01-13T07:12:00.764Z,72.28
2023-01-13T07:13:01.634Z,72.28
2023-01-13T07:14:00.769Z,72.31
2023-01-13T07:15:00.716Z,72.31
2023-01-13T07:16:02.939Z,72.31
2023-01-13T07:17:00.736Z,72.31
2023-01-13T07:18:01.232Z,72.31
2023-01-13T07:19:00.713Z,72.15
2023-01-13T07:20:00.783Z,72.15
2023-01-13T07:21:01.895Z,72.15
2023-01-13T07:22:00.718Z,72.15
2023-01-13T07:23:00.700Z,72.15
2023-01-13T07:24:00.744Z,72.12
2023-01-13T07:25:00.723Z,72.12
2023-01-13T07:26:00.739Z,72.12
2023-01-13T07:27:00.713Z,72.12
2023-01-13T07:28:00.703Z,72.12
2023-01-13T07:29:00.742Z,72.01
2023-01-13T07:30:00.897Z,72.01
2023-01-13T07:31:00.766Z,72.01
2023-01-13T07:32:00.788Z,72.01
2023-01-13T07:33:00.735Z,72.01
2023-01-13T07:34:00.826Z,71.79
2023-01-13T07:35:00.743Z,71.79
2023-01-13T07:36:02.552Z,71.79
2023-01-13T07:37:00.912Z,71.79
2023-01-13T07:38:00.713Z,71.79
2023-01-13T07:39:01.037Z,71.67
2023-01-13T07:40:02.987Z,71.67
2023-01-13T07:41:00.910Z,71.67
2023-01-13T07:42:00.703Z,71.67
2023-01-13T07:43:00.718Z,71.67
2023-01-13T07:44:03.303Z,71.37
2023-01-13T07:45:00.699Z,71.37
2023-01-13T07:46:02.749Z,71.37
2023-01-13T07:47:00.713Z,71.37
2023-01-13T07:48:00.725Z,71.37
2023-01-13T07:49:00.752Z,70.91
2023-01-13T07:50:00.715Z,70.91
2023-01-13T07:51:02.880Z,70.91
2023-01-13T07:52:00.870Z,70.91
2023-01-13T07:53:00.751Z,70.91
2023-01-13T07:54:00.723Z,70.70
2023-01-13T07:55:00.783Z,70.70
2023-01-13T07:56:01.599Z,70.70
2023-01-13T07:57:00.746Z,70.70
2023-01-13T07:58:00.699Z,70.70
2023-01-13T07:59:00.741Z,70.29
2023-01-13T08:00:01.217Z,70.29
2023-01-13T08:01:06.307Z,70.29
2023-01-13T08:02:00.905Z,70.29
2023-01-13T08:03:00.754Z,70.29
2023-01-13T08:04:00.752Z,70.46
2023-01-13T08:05:00.746Z,70.46
2023-01-13T08:06:01.213Z,70.46
2023-01-13T08:07:00.702Z,70.46
2023-01-13T08:08:00.912Z,70.46
2023-01-13T08:09:00.752Z,69.51
2023-01-13T08:10:01.228Z,69.51
2023-01-13T08:11:02.118Z,69.51
2023-01-13T08:12:00.790Z,69.51
2023-01-13T08:13:00.698Z,69.51
2023-01-13T08:14:00.715Z,69.07
2023-01-13T08:15:00.830Z,69.07
2023-01-13T08:16:02.233Z,69.07
2023-01-13T08:17:00.702Z,69.07
2023-01-13T08:18:00.709Z,69.07
2023-01-13T08:19:00.698Z,69.72
2023-01-13T08:20:00.803Z,69.72
2023-01-13T08:21:01.750Z,69.72
2023-01-13T08:22:00.827Z,69.72
2023-01-13T08:23:00.709Z,69.72
2023-01-13T08:24:00.709Z,69.73
2023-01-13T08:25:00.872Z,69.73
2023-01-13T08:26:02.579Z,69.73
2023-01-13T08:27:00.695Z,69.73
2023-01-13T08:28:00.719Z,69.73
2023-01-13T08:29:00.730Z,69.32
2023-01-13T08:30:00.707Z,69.32
2023-01-13T08:31:02.028Z,69.32
2023-01-13T08:32:00.705Z,69.32
2023-01-13T08:33:00.821Z,69.32
2023-01-13T08:34:00.714Z,69.34
2023-01-13T08:35:00.754Z,69.34
2023-01-13T08:36:02.661Z,69.34
2023-01-13T08:37:00.728Z,69.34
2023-01-13T08:38:00.701Z,69.34
2023-01-13T08:39:00.704Z,69.18
2023-01-13T08:40:00.723Z,69.18
2023-01-13T08:41:00.883Z,69.18
2023-01-13T08:42:01.285Z,69.18
2023-01-13T08:43:00.873Z,69.18
2023-01-13T08:44:00.719Z,69.30
2023-01-13T08:45:00.715Z,69.30
2023-01-13T08:46:01.403Z,69.30
2023-01-13T08:47:00.709Z,69.30
2023-01-13T08:48:01.006Z,69.30
2023-01-13T08:49:00.802Z,69.47
2023-01-13T08:50:00.727Z,69.47
2023-01-13T08:51:01.623Z,69.47
2023-01-13T08:52:00.733Z,69.47
2023-01-13T08:53:00.720Z,69.47
2023-01-13T08:54:00.717Z,68.79
2023-01-13T08:55:00.770Z,68.79
2023-01-13T08:56:00.853Z,68.79
2023-01-13T08:57:00.855Z,68.79
2023-01-13T08:58:14.656Z,68.79
2023-01-13T08:59:01.144Z,69.03
2023-01-13T09:00:01.163Z,69.03
2023-01-13T09:01:04.514Z,69.03
2023-01-13T09:02:01.121Z,69.03
2023-01-13T09:03:00.706Z,69.03
2023-01-13T09:04:00.823Z,68.76
2023-01-13T09:05:00.739Z,68.76
2023-01-13T09:06:00.882Z,68.76
2023-01-13T09:07:00.703Z,68.76
2023-01-13T09:08:00.707Z,68.76
2023-01-13T09:09:00.726Z,68.00
2023-01-13T09:10:01.389Z,68.00
2023-01-13T09:11:00.747Z,68.00
2023-01-13T09:12:01.075Z,68.00
2023-01-13T09:13:00.699Z,68.00
2023-01-13T09:14:03.216Z,68.59
2023-01-13T09:15:01.531Z,68.59
2023-01-13T09:16:00.779Z,68.59
2023-01-13T09:17:00.813Z,68.59
2023-01-13T09:18:00.697Z,68.59
2023-01-13T09:19:00.723Z,68.19
2023-01-13T09:20:00.859Z,68.19
2023-01-13T09:21:00.728Z,68.19
2023-01-13T09:22:00.858Z,68.19
2023-01-13T09:23:00.791Z,68.19
2023-01-13T09:24:01.458Z,68.69
2023-01-13T09:25:00.762Z,68.69
2023-01-13T09:26:00.709Z,68.69
2023-01-13T09:27:00.697Z,68.69
2023-01-13T09:28:00.736Z,68.69
2023-01-13T09:29:00.712Z,69.00
2023-01-13T09:30:00.734Z,69.00
2023-01-13T09:31:00.830Z,69.00
2023-01-13T09:32:00.709Z,69.00
2023-01-13T09:33:00.694Z,69.00
2023-01-13T09:34:01.630Z,68.97
2023-01-13T09:35:00.769Z,68.97
2023-01-13T09:36:00.739Z,68.97
2023-01-13T09:37:01.138Z,68.97
2023-01-13T09:38:00.700Z,68.97
2023-01-13T09:39:00.713Z,69.14
2023-01-13T09:40:01.512Z,69.14
2023-01-13T09:41:00.791Z,69.14
2023-01-13T09:42:06.491Z,69.14
2023-01-13T09:43:05.537Z,69.14
2023-01-13T09:44:01.748Z,68.75
2023-01-13T09:45:04.880Z,68.75
2023-01-13T09:46:05.338Z,68.75
2023-01-13T09:47:02.585Z,68.75
2023-01-13T09:48:03.741Z,68.75
2023-01-13T09:49:01.233Z,68.57
2023-01-13T09:50:10.646Z,68.57
2023-01-13T09:51:01.775Z,68.57
2023-01-13T09:52:03.405Z,68.57
2023-01-13T09:53:00.891Z,68.57
2023-01-13T09:54:05.394Z,69.25
2023-01-13T09:55:08.028Z,69.25
2023-01-13T09:56:00.762Z,69.25
2023-01-13T09:57:00.790Z,69.25
2023-01-13T09:58:01.319Z,69.25
2023-01-13T09:59:00.751Z,68.61
2023-01-13T10:00:00.911Z,68.61
2023-01-13T10:01:10.664Z,68.61
2023-01-13T10:02:04.025Z,68.61
2023-01-13T10:03:00.698Z,68.61
2023-01-13T10:04:03.112Z,68.91
2023-01-13T10:05:01.873Z,68.91
2023-01-13T10:06:09.178Z,68.91
2023-01-13T10:07:01.547Z,68.91
2023-01-13T10:08:04.196Z,68.91
2023-01-13T10:09:00.962Z,69.00
2023-01-13T10:10:01.558Z,69.00
2023-01-13T10:11:03.627Z,69.00
2023-01-13T10:12:01.433Z,69.00
2023-01-13T10:13:00.903Z,69.00
2023-01-13T10:14:02.030Z,69.15
2023-01-13T10:15:00.746Z,69.15
2023-01-13T10:16:10.756Z,69.15
2023-01-13T10:17:10.614Z,69.15
2023-01-13T10:18:04.044Z,69.15
2023-01-13T10:19:00.722Z,68.82
2023-01-13T10:20:00.691Z,68.82
2023-01-13T10:21:10.042Z,68.82
2023-01-13T10:22:10.611Z,68.82
2023-01-13T10:23:10.639Z,68.82
2023-01-13T10:24:04.726Z,68.17
2023-01-13T10:25:10.621Z,68.17
2023-01-13T10:26:10.734Z,68.17
2023-01-13T10:27:06.471Z,68.17
2023-01-13T10:28:06.842Z,68.17
2023-01-13T10:29:00.716Z,68.69
2023-01-13T10:30:10.656Z,68.69
2023-01-13T10:31:04.161Z,68.69
2023-01-13T10:32:00.761Z,68.69
2023-01-13T10:33:05.385Z,68.69
2023-01-13T10:34:01.925Z,67.38
2023-01-13T10:35:00.726Z,67.38
2023-01-13T10:36:10.623Z,67.38
2023-01-13T10:37:02.266Z,67.38
2023-01-13T10:38:00.717Z,67.38
2023-01-13T10:39:09.091Z,67.62
2023-01-13T10:40:01.992Z,67.62
2023-01-13T10:41:03.695Z,67.62
2023-01-13T10:42:01.906Z,67.62
2023-01-13T10:43:03.338Z,67.62
2023-01-13T10:44:06.741Z,67.16
2023-01-13T10:45:00.746Z,67.16
2023-01-13T10:46:01.701Z,67.16
2023-01-13T10:47:00.735Z,67.16
2023-01-13T10:48:04.322Z,67.16
2023-01-13T10:49:02.070Z,66.74
2023-01-13T10:50:10.617Z,66.74
2023-01-13T10:51:10.619Z,66.74
2023-01-13T10:52:01.462Z,66.74
2023-01-13T10:53:02.349Z,66.74
2023-01-13T10:54:01.907Z,67.02
2023-01-13T10:55:00.774Z,67.02
2023-01-13T10:56:02.115Z,67.02
2023-01-13T10:57:10.615Z,67.02
2023-01-13T10:58:10.640Z,67.02
2023-01-13T10:59:10.660Z,66.80
2023-01-13T11:00:02.852Z,66.80
2023-01-13T11:01:02.184Z,66.80
2023-01-13T11:02:24.863Z,66.80
2023-01-13T11:03:10.619Z,66.80
2023-01-13T11:04:00.724Z,66.88
2023-01-13T11:05:02.758Z,66.88
2023-01-13T11:06:01.128Z,66.88
2023-01-13T11:07:01.622Z,66.88
2023-01-13T11:08:00.732Z,66.88
2023-01-13T11:09:00.795Z,65.26
2023-01-13T11:10:00.688Z,65.26
2023-01-13T11:11:00.766Z,65.26
2023-01-13T11:12:00.750Z,65.26
2023-01-13T11:13:04.037Z,65.26
2023-01-13T11:14:03.814Z,65.07
2023-01-13T11:15:02.806Z,65.07
2023-01-13T11:16:05.338Z,65.07
2023-01-13T11:17:10.617Z,65.07
2023-01-13T11:18:02.373Z,65.07
2023-01-13T11:19:04.801Z,65.62
2023-01-13T11:20:10.627Z,65.62
2023-01-13T11:21:03.941Z,65.62
2023-01-13T11:22:06.403Z,65.62
2023-01-13T11:23:02.656Z,65.62
2023-01-13T11:24:10.651Z,65.90
2023-01-13T11:25:02.261Z,65.90
2023-01-13T11:26:03.281Z,65.90
2023-01-13T11:27:03.310Z,65.90
2023-01-13T11:28:05.757Z,65.90
2023-01-13T11:29:08.351Z,66.00
2023-01-13T11:30:10.642Z,66.00
2023-01-13T11:31:06.097Z,66.00
2023-01-13T11:32:09.630Z,66.00
2023-01-13T11:33:10.615Z,66.00
2023-01-13T11:34:10.667Z,66.03
2023-01-13T11:35:02.929Z,66.03
2023-01-13T11:36:08.087Z,66.03
2023-01-13T11:37:02.730Z,66.03
2023-01-13T11:38:08.952Z,66.03
2023-01-13T11:39:09.910Z,66.25
2023-01-13T11:40:01.742Z,66.25
2023-01-13T11:41:10.645Z,66.25
2023-01-13T11:42:02.503Z,66.25
2023-01-13T11:43:03.994Z,66.25
2023-01-13T11:44:10.690Z,64.66
2023-01-13T11:45:00.692Z,64.66
2023-01-13T11:46:00.855Z,64.66
2023-01-13T11:47:00.825Z,64.66
2023-01-13T11:48:01.473Z,64.66
2023-01-13T11:49:01.420Z,63.84
2023-01-13T11:50:01.404Z,63.84
2023-01-13T11:51:06.090Z,63.84
2023-01-13T11:52:10.628Z,63.84
2023-01-13T11:53:10.621Z,63.84
2023-01-13T11:54:08.145Z,64.66
2023-01-13T11:55:00.687Z,64.66
2023-01-13T11:56:10.617Z,64.66
2023-01-13T11:57:10.664Z,64.66
2023-01-13T11:58:10.626Z,64.66
2023-01-13T11:59:06.988Z,64.51
2023-01-13T12:00:10.622Z,64.51
2023-01-13T12:01:07.706Z,64.51
2023-01-13T12:02:10.747Z,64.51
2023-01-13T12:03:10.692Z,64.51
2023-01-13T12:04:00.701Z,64.43
2023-01-13T12:05:03.977Z,64.43
2023-01-13T12:06:07.670Z,64.43
2023-01-13T12:07:07.321Z,64.43
2023-01-13T12:08:10.644Z,64.43
2023-01-13T12:09:10.638Z,64.00
2023-01-13T12:10:13.545Z,64.00
2023-01-13T12:11:01.719Z,64.00
2023-01-13T12:12:01.682Z,64.00
2023-01-13T12:13:10.629Z,64.00
2023-01-13T12:14:10.656Z,63.17
2023-01-13T12:15:00.690Z,63.17
2023-01-13T12:16:00.727Z,63.17
2023-01-13T12:17:02.457Z,63.17
2023-01-13T12:18:03.969Z,63.17
2023-01-13T12:19:10.638Z,64.51
2023-01-13T12:20:10.653Z,64.51
2023-01-13T12:21:00.764Z,64.51
2023-01-13T12:22:10.633Z,64.51
2023-01-13T12:23:03.019Z,64.51
2023-01-13T12:24:10.649Z,63.88
2023-01-13T12:25:10.598Z,63.88
2023-01-13T12:26:05.233Z,63.88
2023-01-13T12:27:04.910Z,63.88
2023-01-13T12:28:03.987Z,63.88
2023-01-13T12:29:00.775Z,63.78
2023-01-13T12:30:01.762Z,63.78
2023-01-13T12:31:01.641Z,63.78
2023-01-13T12:32:02.777Z,63.78
2023-01-13T12:33:10.628Z,63.78
2023-01-13T12:34:10.609Z,63.69
2023-01-13T12:35:10.618Z,63.69
2023-01-13T12:36:07.892Z,63.69
2023-01-13T12:37:00.700Z,63.69
2023-01-13T12:38:05.616Z,63.69
2023-01-13T12:39:10.671Z,63.40
2023-01-13T12:40:10.641Z,63.40
2023-01-13T12:41:03.989Z,63.40
2023-01-13T12:42:08.949Z,63.40
2023-01-13T12:43:01.758Z,63.40
2023-01-13T12:44:01.504Z,63.31
2023-01-13T12:45:10.672Z,63.31
2023-01-13T12:46:10.627Z,63.31
2023-01-13T12:47:00.735Z,63.31
2023-01-13T12:48:00.768Z,63.31
2023-01-13T12:49:00.682Z,63.12
2023-01-13T12:50:10.623Z,63.12
2023-01-13T12:51:00.782Z,63.12
2023-01-13T12:52:03.593Z,63.12
2023-01-13T12:53:10.616Z,63.12